Terminal Aerodrome Forecast
Issued by NWS

Home | Current Version | Previous Version | Text Only | Print | Product List | Glossary On
Versions: 1 2 3 4 5 6 7 8 9 10 11 12 13 14 15 16 17 18 19 20 21 22 23 24 25 26
000
FTUS43 KGRR 270900 AAB
TAFAZO
TAF AMD
KAZO 270958Z 2710/2806 19006KT P6SM -RA OVC035
     FM271200 19009KT 6SM -RA BR OVC025
     FM271400 20010KT 2SM -DZ BR OVC008
     FM272000 25015G25KT P6SM OVC015
     FM272300 26012G19KT P6SM OVC015
     FM280100 28009KT P6SM OVC025=

USA.gov is the U.S. government's official web portal to all federal, state and local government web resources and services.